sensor_id;sensor_type;location;lat;lon;timestamp;temperature;humidity
34434;DHT22;34290;48.562;13.384;2022-09-20T00:00:18;8.40;99.90
34434;DHT22;34290;48.562;13.384;2022-09-20T00:05:12;8.40;99.90
34434;DHT22;34290;48.562;13.384;2022-09-20T00:10:09;8.40;99.90
34434;DHT22;34290;48.562;13.384;2022-09-20T00:12:36;8.40;99.90
34434;DHT22;34290;48.562;13.384;2022-09-20T00:17:32;8.40;99.90
34434;DHT22;34290;48.562;13.384;2022-09-20T00:19:59;8.40;99.90
34434;DHT22;34290;48.562;13.384;2022-09-20T00:22:26;8.30;99.90
34434;DHT22;34290;48.562;13.384;2022-09-20T00:24:53;8.30;99.90
34434;DHT22;34290;48.562;13.384;2022-09-20T00:29:47;8.40;99.90
34434;DHT22;34290;48.562;13.384;2022-09-20T00:34:43;8.40;99.90
34434;DHT22;34290;48.562;13.384;2022-09-20T00:37:27;8.40;99.90
34434;DHT22;34290;48.562;13.384;2022-09-20T00:44:56;8.30;99.90
34434;DHT22;34290;48.562;13.384;2022-09-20T00:54:54;8.10;99.90
34434;DHT22;34290;48.562;13.384;2022-09-20T00:57:22;8.00;99.90
34434;DHT22;34290;48.562;13.384;2022-09-20T00:59:50;8.10;99.90
34434;DHT22;34290;48.562;13.384;2022-09-20T01:09:44;8.20;99.90
34434;DHT22;34290;48.562;13.384;2022-09-20T01:14:42;8.20;99.90
34434;DHT22;34290;48.562;13.384;2022-09-20T01:17:10;8.20;99.90
34434;DHT22;34290;48.562;13.384;2022-09-20T01:27:18;8.30;99.90
34434;DHT22;34290;48.562;13.384;2022-09-20T01:30:04;8.20;99.90
34434;DHT22;34290;48.562;13.384;2022-09-20T01:32:40;8.20;99.90
34434;DHT22;34290;48.562;13.384;2022-09-20T01:35:09;8.20;99.90
34434;DHT22;34290;48.562;13.384;2022-09-20T01:37:46;8.20;99.90
34434;DHT22;34290;48.562;13.384;2022-09-20T01:40:23;8.20;99.90
34434;DHT22;34290;48.562;13.384;2022-09-20T01:45:27;8.20;99.90
34434;DHT22;34290;48.562;13.384;2022-09-20T01:53:35;8.20;99.90
34434;DHT22;34290;48.562;13.384;2022-09-20T01:56:35;8.30;99.90
34434;DHT22;34290;48.562;13.384;2022-09-20T01:59:28;8.20;99.90
34434;DHT22;34290;48.562;13.384;2022-09-20T02:08:13;8.30;99.90
34434;DHT22;34290;48.562;13.384;2022-09-20T02:16:47;8.30;99.90
34434;DHT22;34290;48.562;13.384;2022-09-20T02:19:48;8.30;99.90
34434;DHT22;34290;48.562;13.384;2022-09-20T02:27:33;8.40;99.90
34434;DHT22;34290;48.562;13.384;2022-09-20T02:30:18;8.40;99.90
34434;DHT22;34290;48.562;13.384;2022-09-20T02:33:10;8.50;99.90
34434;DHT22;34290;48.562;13.384;2022-09-20T02:43:37;8.60;99.90
34434;DHT22;34290;48.562;13.384;2022-09-20T02:46:12;8.60;99.90
34434;DHT22;34290;48.562;13.384;2022-09-20T02:48:48;8.60;99.90
34434;DHT22;34290;48.562;13.384;2022-09-20T02:56:32;8.60;99.90
34434;DHT22;34290;48.562;13.384;2022-09-20T02:59:04;8.60;99.90
34434;DHT22;34290;48.562;13.384;2022-09-20T03:16:56;8.60;99.90
34434;DHT22;34290;48.562;13.384;2022-09-20T03:22:08;8.60;99.90
34434;DHT22;34290;48.562;13.384;2022-09-20T03:24:49;8.70;99.90
34434;DHT22;34290;48.562;13.384;2022-09-20T03:30:05;8.60;99.90
34434;DHT22;34290;48.562;13.384;2022-09-20T03:32:50;8.60;99.90
34434;DHT22;34290;48.562;13.384;2022-09-20T03:35:30;8.60;99.90
34434;DHT22;34290;48.562;13.384;2022-09-20T03:38:19;8.70;99.90
34434;DHT22;34290;48.562;13.384;2022-09-20T03:41:17;8.60;99.90
34434;DHT22;34290;48.562;13.384;2022-09-20T03:44:07;8.60;99.90
34434;DHT22;34290;48.562;13.384;2022-09-20T03:46:42;8.60;99.90
34434;DHT22;34290;48.562;13.384;2022-09-20T04:00:19;8.60;99.90
34434;DHT22;34290;48.562;13.384;2022-09-20T04:08:37;8.50;99.90
34434;DHT22;34290;48.562;13.384;2022-09-20T04:11:12;8.50;99.90
34434;DHT22;34290;48.562;13.384;2022-09-20T04:13:47;8.50;99.90
34434;DHT22;34290;48.562;13.384;2022-09-20T04:16:31;8.60;99.90
34434;DHT22;34290;48.562;13.384;2022-09-20T04:21:35;8.60;99.90
34434;DHT22;34290;48.562;13.384;2022-09-20T04:24:08;8.70;99.90
34434;DHT22;34290;48.562;13.384;2022-09-20T04:26:42;8.60;99.90
34434;DHT22;34290;48.562;13.384;2022-09-20T04:31:47;8.60;99.90
34434;DHT22;34290;48.562;13.384;2022-09-20T04:39:50;8.60;99.90
34434;DHT22;34290;48.562;13.384;2022-09-20T04:42:51;8.70;99.90
34434;DHT22;34290;48.562;13.384;2022-09-20T04:45:54;8.70;99.90
34434;DHT22;34290;48.562;13.384;2022-09-20T04:48:57;8.70;99.90
34434;DHT22;34290;48.562;13.384;2022-09-20T04:57:29;8.60;99.90
34434;DHT22;34290;48.562;13.384;2022-09-20T05:06:10;8.60;99.90
34434;DHT22;34290;48.562;13.384;2022-09-20T05:14:23;8.70;99.90
34434;DHT22;34290;48.562;13.384;2022-09-20T05:17:12;8.70;99.90
34434;DHT22;34290;48.562;13.384;2022-09-20T05:25:49;8.70;99.90
34434;DHT22;34290;48.562;13.384;2022-09-20T05:36:03;9.00;99.90
34434;DHT22;34290;48.562;13.384;2022-09-20T05:38:42;9.00;99.90
34434;DHT22;34290;48.562;13.384;2022-09-20T05:43:50;9.00;99.90
34434;DHT22;34290;48.562;13.384;2022-09-20T05:46:30;9.00;99.90
34434;DHT22;34290;48.562;13.384;2022-09-20T05:49:06;9.00;99.90
34434;DHT22;34290;48.562;13.384;2022-09-20T05:51:50;9.10;99.90
34434;DHT22;34290;48.562;13.384;2022-09-20T05:54:41;9.10;99.90
34434;DHT22;34290;48.562;13.384;2022-09-20T05:59:58;9.10;99.90
34434;DHT22;34290;48.562;13.384;2022-09-20T06:02:37;9.20;99.90
34434;DHT22;34290;48.562;13.384;2022-09-20T06:10:41;9.20;99.90
34434;DHT22;34290;48.562;13.384;2022-09-20T06:13:33;9.20;99.90
34434;DHT22;34290;48.562;13.384;2022-09-20T06:16:06;9.10;99.90
34434;DHT22;34290;48.562;13.384;2022-09-20T06:18:41;9.20;99.90
34434;DHT22;34290;48.562;13.384;2022-09-20T06:21:22;9.20;99.90
34434;DHT22;34290;48.562;13.384;2022-09-20T06:23:51;9.20;99.90
34434;DHT22;34290;48.562;13.384;2022-09-20T06:26:24;9.10;99.90
34434;DHT22;34290;48.562;13.384;2022-09-20T06:31:22;8.90;99.90
34434;DHT22;34290;48.562;13.384;2022-09-20T06:33:53;8.90;99.90
34434;DHT22;34290;48.562;13.384;2022-09-20T06:36:25;8.90;99.90
34434;DHT22;34290;48.562;13.384;2022-09-20T06:42:00;8.90;99.90
34434;DHT22;34290;48.562;13.384;2022-09-20T06:49:23;9.10;99.90
34434;DHT22;34290;48.562;13.384;2022-09-20T06:51:54;9.10;99.90
34434;DHT22;34290;48.562;13.384;2022-09-20T06:56:51;9.20;99.90
34434;DHT22;34290;48.562;13.384;2022-09-20T06:59:18;9.20;99.90
34434;DHT22;34290;48.562;13.384;2022-09-20T07:04:12;9.40;99.90
34434;DHT22;34290;48.562;13.384;2022-09-20T07:06:39;9.60;99.90
34434;DHT22;34290;48.562;13.384;2022-09-20T07:09:10;9.80;99.90
34434;DHT22;34290;48.562;13.384;2022-09-20T07:11:37;10.00;99.90
34434;DHT22;34290;48.562;13.384;2022-09-20T07:23:57;10.00;99.90
34434;DHT22;34290;48.562;13.384;2022-09-20T07:28:55;10.20;99.90
34434;DHT22;34290;48.562;13.384;2022-09-20T07:31:24;10.20;99.90
34434;DHT22;34290;48.562;13.384;2022-09-20T07:33:52;10.10;99.90
34434;DHT22;34290;48.562;13.384;2022-09-20T07:38:47;10.10;99.90
34434;DHT22;34290;48.562;13.384;2022-09-20T07:41:14;10.20;99.90
34434;DHT22;34290;48.562;13.384;2022-09-20T07:43:45;10.40;99.90
34434;DHT22;34290;48.562;13.384;2022-09-20T07:46:12;10.50;99.90
34434;DHT22;34290;48.562;13.384;2022-09-20T07:48:40;10.30;99.90
34434;DHT22;34290;48.562;13.384;2022-09-20T07:51:08;10.30;99.90
34434;DHT22;34290;48.562;13.384;2022-09-20T07:53:40;10.40;99.90
34434;DHT22;34290;48.562;13.384;2022-09-20T07:56:10;11.10;99.90
34434;DHT22;34290;48.562;13.384;2022-09-20T08:01:08;12.40;99.90
34434;DHT22;34290;48.562;13.384;2022-09-20T08:03:35;13.00;99.90
34434;DHT22;34290;48.562;13.384;2022-09-20T08:06:04;14.30;99.90
34434;DHT22;34290;48.562;13.384;2022-09-20T08:11:02;14.80;99.90
34434;DHT22;34290;48.562;13.384;2022-09-20T08:13:33;14.90;99.90
34434;DHT22;34290;48.562;13.384;2022-09-20T08:16:01;15.70;99.90
34434;DHT22;34290;48.562;13.384;2022-09-20T08:18:30;15.90;99.90
34434;DHT22;34290;48.562;13.384;2022-09-20T08:21:02;16.10;99.90
34434;DHT22;34290;48.562;13.384;2022-09-20T08:25:58;15.00;99.90
34434;DHT22;34290;48.562;13.384;2022-09-20T08:28:25;14.80;99.90
34434;DHT22;34290;48.562;13.384;2022-09-20T08:30:52;14.30;99.90
34434;DHT22;34290;48.562;13.384;2022-09-20T08:35:49;13.00;99.90
34434;DHT22;34290;48.562;13.384;2022-09-20T08:38:15;12.90;99.90
34434;DHT22;34290;48.562;13.384;2022-09-20T08:40:43;13.10;99.90
34434;DHT22;34290;48.562;13.384;2022-09-20T08:43:10;13.40;99.90
34434;DHT22;34290;48.562;13.384;2022-09-20T08:45:39;13.40;99.90
34434;DHT22;34290;48.562;13.384;2022-09-20T08:48:14;13.70;99.90
34434;DHT22;34290;48.562;13.384;2022-09-20T08:50:42;14.80;99.90
34434;DHT22;34290;48.562;13.384;2022-09-20T08:53:12;15.80;99.90
34434;DHT22;34290;48.562;13.384;2022-09-20T08:55:40;17.30;99.90
34434;DHT22;34290;48.562;13.384;2022-09-20T08:58:09;18.20;99.90
34434;DHT22;34290;48.562;13.384;2022-09-20T09:00:39;18.10;99.90
34434;DHT22;34290;48.562;13.384;2022-09-20T09:03:11;18.20;99.90
34434;DHT22;34290;48.562;13.384;2022-09-20T09:05:43;18.30;99.90
34434;DHT22;34290;48.562;13.384;2022-09-20T09:10:43;19.10;99.90
34434;DHT22;34290;48.562;13.384;2022-09-20T09:13:20;18.30;99.90
34434;DHT22;34290;48.562;13.384;2022-09-20T09:15:54;17.10;99.90
34434;DHT22;34290;48.562;13.384;2022-09-20T09:23:26;16.80;99.90
34434;DHT22;34290;48.562;13.384;2022-09-20T09:25:55;16.10;99.90
34434;DHT22;34290;48.562;13.384;2022-09-20T09:28:24;15.40;99.90
34434;DHT22;34290;48.562;13.384;2022-09-20T09:30:51;14.60;99.90
34434;DHT22;34290;48.562;13.384;2022-09-20T09:33:23;14.10;99.90
34434;DHT22;34290;48.562;13.384;2022-09-20T09:35:53;13.70;99.90
34434;DHT22;34290;48.562;13.384;2022-09-20T09:38:22;13.70;99.90
34434;DHT22;34290;48.562;13.384;2022-09-20T09:40:52;14.40;99.90
34434;DHT22;34290;48.562;13.384;2022-09-20T09:43:21;14.90;99.90
34434;DHT22;34290;48.562;13.384;2022-09-20T09:45:52;14.70;99.90
34434;DHT22;34290;48.562;13.384;2022-09-20T09:48:23;14.10;99.90
34434;DHT22;34290;48.562;13.384;2022-09-20T09:50:53;13.40;99.90
34434;DHT22;34290;48.562;13.384;2022-09-20T09:53:32;12.70;99.90
34434;DHT22;34290;48.562;13.384;2022-09-20T09:58:46;12.30;99.90
34434;DHT22;34290;48.562;13.384;2022-09-20T10:01:30;12.40;99.90
34434;DHT22;34290;48.562;13.384;2022-09-20T10:09:22;13.20;99.90
34434;DHT22;34290;48.562;13.384;2022-09-20T10:12:13;13.60;99.90
34434;DHT22;34290;48.562;13.384;2022-09-20T10:17:28;15.00;99.90
34434;DHT22;34290;48.562;13.384;2022-09-20T10:20:07;16.20;99.90
34434;DHT22;34290;48.562;13.384;2022-09-20T10:25:19;19.20;99.90
34434;DHT22;34290;48.562;13.384;2022-09-20T10:30:28;20.50;99.90
34434;DHT22;34290;48.562;13.384;2022-09-20T10:33:04;20.90;99.90
34434;DHT22;34290;48.562;13.384;2022-09-20T10:35:49;21.30;99.10
34434;DHT22;34290;48.562;13.384;2022-09-20T10:38:23;21.90;98.80
34434;DHT22;34290;48.562;13.384;2022-09-20T10:41:02;21.30;96.50
34434;DHT22;34290;48.562;13.384;2022-09-20T10:44:03;19.00;95.60
34434;DHT22;34290;48.562;13.384;2022-09-20T10:46:41;17.50;98.30
34434;DHT22;34290;48.562;13.384;2022-09-20T10:49:19;15.60;99.90
34434;DHT22;34290;48.562;13.384;2022-09-20T10:51:59;14.90;99.90
34434;DHT22;34290;48.562;13.384;2022-09-20T10:54:44;14.60;99.90
34434;DHT22;34290;48.562;13.384;2022-09-20T10:57:27;14.20;99.90
34434;DHT22;34290;48.562;13.384;2022-09-20T11:10:32;18.00;99.90
34434;DHT22;34290;48.562;13.384;2022-09-20T11:13:05;17.60;99.90
34434;DHT22;34290;48.562;13.384;2022-09-20T11:15:40;16.60;99.90
34434;DHT22;34290;48.562;13.384;2022-09-20T11:18:13;16.00;99.90
34434;DHT22;34290;48.562;13.384;2022-09-20T11:20:48;16.20;99.90
34434;DHT22;34290;48.562;13.384;2022-09-20T11:23:21;16.80;99.90
34434;DHT22;34290;48.562;13.384;2022-09-20T11:28:24;17.30;99.90
34434;DHT22;34290;48.562;13.384;2022-09-20T11:33:27;18.80;99.90
34434;DHT22;34290;48.562;13.384;2022-09-20T11:35:57;19.40;99.90
34434;DHT22;34290;48.562;13.384;2022-09-20T11:38:32;19.80;98.50
34434;DHT22;34290;48.562;13.384;2022-09-20T11:41:04;19.90;97.70
34434;DHT22;34290;48.562;13.384;2022-09-20T11:43:37;19.30;96.80
34434;DHT22;34290;48.562;13.384;2022-09-20T11:46:11;18.80;96.90
34434;DHT22;34290;48.562;13.384;2022-09-20T11:48:43;18.30;97.70
34434;DHT22;34290;48.562;13.384;2022-09-20T11:54:25;16.80;98.40
34434;DHT22;34290;48.562;13.384;2022-09-20T11:56:58;16.20;99.90
34434;DHT22;34290;48.562;13.384;2022-09-20T11:59:29;15.80;99.90
34434;DHT22;34290;48.562;13.384;2022-09-20T12:04:30;17.20;99.90
34434;DHT22;34290;48.562;13.384;2022-09-20T12:07:01;17.30;98.50
34434;DHT22;34290;48.562;13.384;2022-09-20T12:09:32;16.10;97.80
34434;DHT22;34290;48.562;13.384;2022-09-20T12:12:16;14.50;99.90
34434;DHT22;34290;48.562;13.384;2022-09-20T12:14:53;13.60;99.90
34434;DHT22;34290;48.562;13.384;2022-09-20T12:23:43;11.90;99.90
34434;DHT22;34290;48.562;13.384;2022-09-20T12:33:57;12.10;99.90
34434;DHT22;34290;48.562;13.384;2022-09-20T12:36:27;12.50;99.90
34434;DHT22;34290;48.562;13.384;2022-09-20T12:38:59;12.90;99.90
34434;DHT22;34290;48.562;13.384;2022-09-20T12:41:28;13.30;99.90
34434;DHT22;34290;48.562;13.384;2022-09-20T12:44:24;13.80;99.90
34434;DHT22;34290;48.562;13.384;2022-09-20T12:46:54;14.20;99.90
34434;DHT22;34290;48.562;13.384;2022-09-20T12:49:34;14.40;99.90
34434;DHT22;34290;48.562;13.384;2022-09-20T12:52:25;14.80;99.90
34434;DHT22;34290;48.562;13.384;2022-09-20T12:55:28;15.00;99.90
34434;DHT22;34290;48.562;13.384;2022-09-20T12:57:59;15.00;99.90
34434;DHT22;34290;48.562;13.384;2022-09-20T13:00:33;15.10;99.90
34434;DHT22;34290;48.562;13.384;2022-09-20T13:03:22;15.10;99.90
34434;DHT22;34290;48.562;13.384;2022-09-20T13:05:50;15.00;99.90
34434;DHT22;34290;48.562;13.384;2022-09-20T13:08:41;14.70;99.90
34434;DHT22;34290;48.562;13.384;2022-09-20T13:11:15;14.70;99.90
34434;DHT22;34290;48.562;13.384;2022-09-20T13:13:46;14.70;99.90
34434;DHT22;34290;48.562;13.384;2022-09-20T13:16:20;14.50;99.90
34434;DHT22;34290;48.562;13.384;2022-09-20T13:18:53;14.40;99.90
34434;DHT22;34290;48.562;13.384;2022-09-20T13:21:23;14.50;99.90
34434;DHT22;34290;48.562;13.384;2022-09-20T13:23:52;14.50;99.90
34434;DHT22;34290;48.562;13.384;2022-09-20T13:26:25;14.40;99.90
34434;DHT22;34290;48.562;13.384;2022-09-20T13:31:38;14.30;99.90
34434;DHT22;34290;48.562;13.384;2022-09-20T13:34:22;14.20;99.90
34434;DHT22;34290;48.562;13.384;2022-09-20T13:36:53;14.20;99.90
34434;DHT22;34290;48.562;13.384;2022-09-20T13:41:58;14.00;99.90
34434;DHT22;34290;48.562;13.384;2022-09-20T13:44:28;13.90;99.90
34434;DHT22;34290;48.562;13.384;2022-09-20T13:46:55;14.00;99.90
34434;DHT22;34290;48.562;13.384;2022-09-20T13:51:50;14.00;99.90
34434;DHT22;34290;48.562;13.384;2022-09-20T13:56:46;13.90;99.90
34434;DHT22;34290;48.562;13.384;2022-09-20T13:59:15;13.70;99.90
34434;DHT22;34290;48.562;13.384;2022-09-20T14:01:48;13.40;99.90
34434;DHT22;34290;48.562;13.384;2022-09-20T14:04:17;13.30;99.90
34434;DHT22;34290;48.562;13.384;2022-09-20T14:09:20;13.50;99.90
34434;DHT22;34290;48.562;13.384;2022-09-20T14:11:49;13.50;99.90
34434;DHT22;34290;48.562;13.384;2022-09-20T14:14:18;13.40;99.90
34434;DHT22;34290;48.562;13.384;2022-09-20T14:19:16;13.30;99.90
34434;DHT22;34290;48.562;13.384;2022-09-20T14:21:44;13.40;99.90
34434;DHT22;34290;48.562;13.384;2022-09-20T14:24:24;13.40;99.90
34434;DHT22;34290;48.562;13.384;2022-09-20T14:27:01;13.40;99.90
34434;DHT22;34290;48.562;13.384;2022-09-20T14:29:37;13.20;99.90
34434;DHT22;34290;48.562;13.384;2022-09-20T14:32:10;13.10;99.90
34434;DHT22;34290;48.562;13.384;2022-09-20T14:34:40;13.00;99.90
34434;DHT22;34290;48.562;13.384;2022-09-20T14:37:21;12.90;99.90
34434;DHT22;34290;48.562;13.384;2022-09-20T14:42:19;12.80;99.90
34434;DHT22;34290;48.562;13.384;2022-09-20T14:44:51;12.70;99.90
34434;DHT22;34290;48.562;13.384;2022-09-20T14:47:25;12.70;99.90
34434;DHT22;34290;48.562;13.384;2022-09-20T14:49:53;12.70;99.90
34434;DHT22;34290;48.562;13.384;2022-09-20T14:52:35;12.70;99.90
34434;DHT22;34290;48.562;13.384;2022-09-20T14:55:17;12.80;99.90
34434;DHT22;34290;48.562;13.384;2022-09-20T14:57:46;12.90;99.90
34434;DHT22;34290;48.562;13.384;2022-09-20T15:00:16;12.80;99.90
34434;DHT22;34290;48.562;13.384;2022-09-20T15:02:45;12.70;99.90
34434;DHT22;34290;48.562;13.384;2022-09-20T15:10:16;12.30;99.90
34434;DHT22;34290;48.562;13.384;2022-09-20T15:15:12;12.20;99.90
34434;DHT22;34290;48.562;13.384;2022-09-20T15:17:45;12.10;99.90
34434;DHT22;34290;48.562;13.384;2022-09-20T15:25:15;11.90;99.90
34434;DHT22;34290;48.562;13.384;2022-09-20T15:27:42;11.70;99.90
34434;DHT22;34290;48.562;13.384;2022-09-20T15:30:13;11.70;99.90
34434;DHT22;34290;48.562;13.384;2022-09-20T15:32:43;11.70;99.90
34434;DHT22;34290;48.562;13.384;2022-09-20T15:40:07;11.50;99.90
34434;DHT22;34290;48.562;13.384;2022-09-20T15:42:34;11.40;99.90
34434;DHT22;34290;48.562;13.384;2022-09-20T15:45:05;11.30;99.90
34434;DHT22;34290;48.562;13.384;2022-09-20T15:47:34;11.30;99.90
34434;DHT22;34290;48.562;13.384;2022-09-20T15:50:03;11.30;99.90
34434;DHT22;34290;48.562;13.384;2022-09-20T15:55:00;11.30;99.90
34434;DHT22;34290;48.562;13.384;2022-09-20T15:59:55;11.20;99.90
34434;DHT22;34290;48.562;13.384;2022-09-20T16:02:23;11.20;99.90
34434;DHT22;34290;48.562;13.384;2022-09-20T16:07:22;11.10;99.90
34434;DHT22;34290;48.562;13.384;2022-09-20T16:09:52;11.10;99.90
34434;DHT22;34290;48.562;13.384;2022-09-20T16:12:19;11.00;99.90
34434;DHT22;34290;48.562;13.384;2022-09-20T16:14:47;11.10;99.90
34434;DHT22;34290;48.562;13.384;2022-09-20T16:17:14;11.00;99.90
34434;DHT22;34290;48.562;13.384;2022-09-20T16:22:09;10.90;99.90
34434;DHT22;34290;48.562;13.384;2022-09-20T16:24:38;10.80;99.90
34434;DHT22;34290;48.562;13.384;2022-09-20T16:27:06;10.80;99.90
34434;DHT22;34290;48.562;13.384;2022-09-20T16:34:33;10.50;99.90
34434;DHT22;34290;48.562;13.384;2022-09-20T16:37:02;10.50;99.90
34434;DHT22;34290;48.562;13.384;2022-09-20T16:39:30;10.40;99.90
34434;DHT22;34290;48.562;13.384;2022-09-20T16:42:00;10.30;99.90
34434;DHT22;34290;48.562;13.384;2022-09-20T16:44:29;10.30;99.90
34434;DHT22;34290;48.562;13.384;2022-09-20T16:46:56;10.30;99.90
34434;DHT22;34290;48.562;13.384;2022-09-20T16:49:23;10.10;99.90
34434;DHT22;34290;48.562;13.384;2022-09-20T16:51:51;10.10;99.90
34434;DHT22;34290;48.562;13.384;2022-09-20T16:54:18;10.00;99.90
34434;DHT22;34290;48.562;13.384;2022-09-20T16:56:47;10.10;99.90
34434;DHT22;34290;48.562;13.384;2022-09-20T16:59:17;10.10;99.90
34434;DHT22;34290;48.562;13.384;2022-09-20T17:01:45;10.00;99.90
34434;DHT22;34290;48.562;13.384;2022-09-20T17:06:41;9.90;99.90
34434;DHT22;34290;48.562;13.384;2022-09-20T17:09:09;10.00;99.90
34434;DHT22;34290;48.562;13.384;2022-09-20T17:11:37;9.90;99.90
34434;DHT22;34290;48.562;13.384;2022-09-20T17:14:05;9.90;99.90
34434;DHT22;34290;48.562;13.384;2022-09-20T17:16:36;9.90;99.90
34434;DHT22;34290;48.562;13.384;2022-09-20T17:19:05;9.80;99.90
34434;DHT22;34290;48.562;13.384;2022-09-20T17:21:52;9.70;99.90
34434;DHT22;34290;48.562;13.384;2022-09-20T17:24:20;10.00;99.90
34434;DHT22;34290;48.562;13.384;2022-09-20T17:26:47;9.60;99.90
34434;DHT22;34290;48.562;13.384;2022-09-20T17:29:16;9.50;99.90
34434;DHT22;34290;48.562;13.384;2022-09-20T17:31:46;9.50;99.90
34434;DHT22;34290;48.562;13.384;2022-09-20T17:34:14;9.40;99.90
34434;DHT22;34290;48.562;13.384;2022-09-20T17:36:43;9.20;99.90
34434;DHT22;34290;48.562;13.384;2022-09-20T17:41:38;9.00;99.90
34434;DHT22;34290;48.562;13.384;2022-09-20T17:46:35;8.80;99.90
34434;DHT22;34290;48.562;13.384;2022-09-20T17:49:05;8.70;99.90
34434;DHT22;34290;48.562;13.384;2022-09-20T17:51:34;8.60;99.90
34434;DHT22;34290;48.562;13.384;2022-09-20T17:54:02;8.60;99.90
34434;DHT22;34290;48.562;13.384;2022-09-20T17:58:59;8.40;99.90
34434;DHT22;34290;48.562;13.384;2022-09-20T18:01:27;8.40;99.90
34434;DHT22;34290;48.562;13.384;2022-09-20T18:06:25;8.30;99.90
34434;DHT22;34290;48.562;13.384;2022-09-20T18:08:54;8.20;99.90
34434;DHT22;34290;48.562;13.384;2022-09-20T18:11:25;8.20;99.90
34434;DHT22;34290;48.562;13.384;2022-09-20T18:13:53;8.20;99.90
34434;DHT22;34290;48.562;13.384;2022-09-20T18:16:20;8.10;99.90
34434;DHT22;34290;48.562;13.384;2022-09-20T18:18:47;8.10;99.90
34434;DHT22;34290;48.562;13.384;2022-09-20T18:21:16;8.10;99.90
34434;DHT22;34290;48.562;13.384;2022-09-20T18:23:45;8.00;99.90
34434;DHT22;34290;48.562;13.384;2022-09-20T18:26:14;7.90;99.90
34434;DHT22;34290;48.562;13.384;2022-09-20T18:28:53;7.80;99.90
34434;DHT22;34290;48.562;13.384;2022-09-20T18:31:22;7.80;99.90
34434;DHT22;34290;48.562;13.384;2022-09-20T18:33:57;7.80;99.90
34434;DHT22;34290;48.562;13.384;2022-09-20T18:38:54;7.70;99.90
34434;DHT22;34290;48.562;13.384;2022-09-20T18:41:23;7.70;99.90
34434;DHT22;34290;48.562;13.384;2022-09-20T18:46:19;7.60;99.90
34434;DHT22;34290;48.562;13.384;2022-09-20T18:48:48;7.50;99.90
34434;DHT22;34290;48.562;13.384;2022-09-20T18:53:43;7.50;99.90
34434;DHT22;34290;48.562;13.384;2022-09-20T18:56:19;7.40;99.90
34434;DHT22;34290;48.562;13.384;2022-09-20T19:04:04;7.30;99.90
34434;DHT22;34290;48.562;13.384;2022-09-20T19:06:42;7.40;99.90
34434;DHT22;34290;48.562;13.384;2022-09-20T19:14:18;7.20;99.90
34434;DHT22;34290;48.562;13.384;2022-09-20T19:16:52;7.20;99.90
34434;DHT22;34290;48.562;13.384;2022-09-20T19:19:39;7.10;99.90
34434;DHT22;34290;48.562;13.384;2022-09-20T19:25:09;6.90;99.90
34434;DHT22;34290;48.562;13.384;2022-09-20T19:27:43;6.90;99.90
34434;DHT22;34290;48.562;13.384;2022-09-20T19:30:12;6.90;99.90
34434;DHT22;34290;48.562;13.384;2022-09-20T19:32:40;7.00;99.90
34434;DHT22;34290;48.562;13.384;2022-09-20T19:35:17;6.90;99.90
34434;DHT22;34290;48.562;13.384;2022-09-20T19:37:58;6.90;99.90
34434;DHT22;34290;48.562;13.384;2022-09-20T19:40:37;6.90;99.90
34434;DHT22;34290;48.562;13.384;2022-09-20T19:43:23;6.90;99.90
34434;DHT22;34290;48.562;13.384;2022-09-20T19:46:03;6.90;99.90
34434;DHT22;34290;48.562;13.384;2022-09-20T19:48:37;6.90;99.90
34434;DHT22;34290;48.562;13.384;2022-09-20T19:51:08;6.70;99.90
34434;DHT22;34290;48.562;13.384;2022-09-20T19:53:36;6.60;99.90
34434;DHT22;34290;48.562;13.384;2022-09-20T19:56:17;6.60;99.90
34434;DHT22;34290;48.562;13.384;2022-09-20T19:58:51;6.50;99.90
34434;DHT22;34290;48.562;13.384;2022-09-20T20:01:20;6.60;99.90
34434;DHT22;34290;48.562;13.384;2022-09-20T20:03:48;6.60;99.90
34434;DHT22;34290;48.562;13.384;2022-09-20T20:06:21;6.50;99.90
34434;DHT22;34290;48.562;13.384;2022-09-20T20:08:55;6.50;99.90
34434;DHT22;34290;48.562;13.384;2022-09-20T20:11:32;6.50;99.90
34434;DHT22;34290;48.562;13.384;2022-09-20T20:14:12;6.60;99.90
34434;DHT22;34290;48.562;13.384;2022-09-20T20:16:55;6.40;99.90
34434;DHT22;34290;48.562;13.384;2022-09-20T20:19:43;6.30;99.90
34434;DHT22;34290;48.562;13.384;2022-09-20T20:22:22;6.20;99.90
34434;DHT22;34290;48.562;13.384;2022-09-20T20:24:54;6.20;99.90
34434;DHT22;34290;48.562;13.384;2022-09-20T20:27:22;6.10;99.90
34434;DHT22;34290;48.562;13.384;2022-09-20T20:29:51;6.00;99.90
34434;DHT22;34290;48.562;13.384;2022-09-20T20:32:21;6.00;99.90
34434;DHT22;34290;48.562;13.384;2022-09-20T20:37:16;5.80;99.90
34434;DHT22;34290;48.562;13.384;2022-09-20T20:42:10;5.70;99.90
34434;DHT22;34290;48.562;13.384;2022-09-20T20:44:40;5.60;99.90
34434;DHT22;34290;48.562;13.384;2022-09-20T20:47:08;5.60;99.90
34434;DHT22;34290;48.562;13.384;2022-09-20T20:49:35;5.60;99.90
34434;DHT22;34290;48.562;13.384;2022-09-20T20:56:58;5.40;99.90
34434;DHT22;34290;48.562;13.384;2022-09-20T21:04:21;5.60;99.90
34434;DHT22;34290;48.562;13.384;2022-09-20T21:09:17;5.50;99.90
34434;DHT22;34290;48.562;13.384;2022-09-20T21:14:13;5.30;99.90
34434;DHT22;34290;48.562;13.384;2022-09-20T21:16:43;5.30;99.90
34434;DHT22;34290;48.562;13.384;2022-09-20T21:19:11;5.20;99.90
34434;DHT22;34290;48.562;13.384;2022-09-20T21:21:42;5.20;99.90
34434;DHT22;34290;48.562;13.384;2022-09-20T21:24:10;5.10;99.90
34434;DHT22;34290;48.562;13.384;2022-09-20T21:26:38;5.00;99.90
34434;DHT22;34290;48.562;13.384;2022-09-20T21:29:07;5.00;99.90
34434;DHT22;34290;48.562;13.384;2022-09-20T21:31:37;4.90;99.90
34434;DHT22;34290;48.562;13.384;2022-09-20T21:34:04;4.90;99.90
34434;DHT22;34290;48.562;13.384;2022-09-20T21:36:32;4.90;99.90
34434;DHT22;34290;48.562;13.384;2022-09-20T21:39:01;4.90;99.90
34434;DHT22;34290;48.562;13.384;2022-09-20T21:41:29;4.80;99.90
34434;DHT22;34290;48.562;13.384;2022-09-20T21:43:57;4.80;99.90
34434;DHT22;34290;48.562;13.384;2022-09-20T21:46:26;4.70;99.90
34434;DHT22;34290;48.562;13.384;2022-09-20T21:48:55;4.70;99.90
34434;DHT22;34290;48.562;13.384;2022-09-20T21:51:22;4.60;99.90
34434;DHT22;34290;48.562;13.384;2022-09-20T21:53:51;4.60;99.90
34434;DHT22;34290;48.562;13.384;2022-09-20T21:56:23;4.60;99.90
34434;DHT22;34290;48.562;13.384;2022-09-20T21:58:54;4.50;99.90
34434;DHT22;34290;48.562;13.384;2022-09-20T22:01:22;4.50;99.90
34434;DHT22;34290;48.562;13.384;2022-09-20T22:03:51;4.50;99.90
34434;DHT22;34290;48.562;13.384;2022-09-20T22:06:20;4.50;99.90
34434;DHT22;34290;48.562;13.384;2022-09-20T22:08:49;4.70;99.90